sensor_id;sensor_type;location;lat;lon;timestamp;P1;durP1;ratioP1;P2;durP2;ratioP2
60312;SDS011;46158;52.850;6.970;2023-08-08T00:00:39;10.82;;;4.10;;
60312;SDS011;46158;52.850;6.970;2023-08-08T00:03:05;11.20;;;4.35;;
60312;SDS011;46158;52.850;6.970;2023-08-08T00:05:30;8.95;;;4.35;;
60312;SDS011;46158;52.850;6.970;2023-08-08T00:07:56;9.13;;;3.92;;
60312;SDS011;46158;52.850;6.970;2023-08-08T00:10:22;9.57;;;4.05;;
60312;SDS011;46158;52.850;6.970;2023-08-08T00:12:47;9.40;;;4.00;;
60312;SDS011;46158;52.850;6.970;2023-08-08T00:15:13;10.55;;;4.10;;
60312;SDS011;46158;52.850;6.970;2023-08-08T00:17:39;10.65;;;4.32;;
60312;SDS011;46158;52.850;6.970;2023-08-08T00:20:05;10.65;;;4.00;;
60312;SDS011;46158;52.850;6.970;2023-08-08T00:22:32;10.02;;;3.83;;
60312;SDS011;46158;52.850;6.970;2023-08-08T00:24:57;9.52;;;4.00;;
60312;SDS011;46158;52.850;6.970;2023-08-08T00:27:23;8.40;;;3.63;;
60312;SDS011;46158;52.850;6.970;2023-08-08T00:29:49;11.30;;;4.20;;
60312;SDS011;46158;52.850;6.970;2023-08-08T00:32:16;10.13;;;4.05;;
60312;SDS011;46158;52.850;6.970;2023-08-08T00:34:41;9.35;;;4.03;;
60312;SDS011;46158;52.850;6.970;2023-08-08T00:37:07;8.98;;;3.83;;
60312;SDS011;46158;52.850;6.970;2023-08-08T00:39:33;7.57;;;3.67;;
60312;SDS011;46158;52.850;6.970;2023-08-08T00:41:58;10.00;;;3.92;;
60312;SDS011;46158;52.850;6.970;2023-08-08T00:44:24;10.65;;;3.90;;
60312;SDS011;46158;52.850;6.970;2023-08-08T00:46:50;10.90;;;3.72;;
60312;SDS011;46158;52.850;6.970;2023-08-08T00:49:15;8.55;;;3.55;;
60312;SDS011;46158;52.850;6.970;2023-08-08T00:51:41;11.55;;;4.00;;
60312;SDS011;46158;52.850;6.970;2023-08-08T00:54:07;9.10;;;3.85;;
60312;SDS011;46158;52.850;6.970;2023-08-08T00:56:34;9.57;;;3.78;;
60312;SDS011;46158;52.850;6.970;2023-08-08T00:59:00;8.90;;;3.72;;
60312;SDS011;46158;52.850;6.970;2023-08-08T01:01:27;7.50;;;3.65;;
60312;SDS011;46158;52.850;6.970;2023-08-08T01:03:53;10.07;;;3.85;;
60312;SDS011;46158;52.850;6.970;2023-08-08T01:12:11;8.32;;;3.58;;
60312;SDS011;46158;52.850;6.970;2023-08-08T01:14:40;9.60;;;3.78;;
60312;SDS011;46158;52.850;6.970;2023-08-08T01:17:07;8.05;;;3.30;;
60312;SDS011;46158;52.850;6.970;2023-08-08T01:19:35;9.13;;;3.60;;
60312;SDS011;46158;52.850;6.970;2023-08-08T01:22:02;9.45;;;3.40;;
60312;SDS011;46158;52.850;6.970;2023-08-08T01:24:32;7.55;;;3.50;;
60312;SDS011;46158;52.850;6.970;2023-08-08T01:27:02;10.00;;;3.60;;
60312;SDS011;46158;52.850;6.970;2023-08-08T01:29:29;7.05;;;3.22;;
60312;SDS011;46158;52.850;6.970;2023-08-08T01:31:55;8.85;;;3.55;;
60312;SDS011;46158;52.850;6.970;2023-08-08T01:34:21;9.48;;;3.58;;
60312;SDS011;46158;52.850;6.970;2023-08-08T01:36:57;8.75;;;3.47;;
60312;SDS011;46158;52.850;6.970;2023-08-08T01:39:57;6.32;;;3.30;;
60312;SDS011;46158;52.850;6.970;2023-08-08T01:42:25;6.70;;;3.22;;
60312;SDS011;46158;52.850;6.970;2023-08-08T01:44:52;10.63;;;3.60;;
60312;SDS011;46158;52.850;6.970;2023-08-08T01:47:20;7.60;;;3.25;;
60312;SDS011;46158;52.850;6.970;2023-08-08T01:49:46;7.88;;;3.25;;
60312;SDS011;46158;52.850;6.970;2023-08-08T01:52:12;7.80;;;3.30;;
60312;SDS011;46158;52.850;6.970;2023-08-08T01:54:38;8.63;;;3.33;;
60312;SDS011;46158;52.850;6.970;2023-08-08T01:57:03;6.35;;;3.20;;
60312;SDS011;46158;52.850;6.970;2023-08-08T01:59:29;6.55;;;3.10;;
60312;SDS011;46158;52.850;6.970;2023-08-08T02:01:55;7.53;;;3.22;;
60312;SDS011;46158;52.850;6.970;2023-08-08T02:04:21;6.93;;;3.20;;
60312;SDS011;46158;52.850;6.970;2023-08-08T02:06:46;5.95;;;3.10;;
60312;SDS011;46158;52.850;6.970;2023-08-08T02:09:12;7.30;;;3.13;;
60312;SDS011;46158;52.850;6.970;2023-08-08T02:11:40;6.47;;;3.30;;
60312;SDS011;46158;52.850;6.970;2023-08-08T02:14:06;9.52;;;3.35;;
60312;SDS011;46158;52.850;6.970;2023-08-08T02:16:32;6.82;;;3.10;;
60312;SDS011;46158;52.850;6.970;2023-08-08T02:18:59;8.57;;;3.22;;
60312;SDS011;46158;52.850;6.970;2023-08-08T02:21:25;7.25;;;3.42;;
60312;SDS011;46158;52.850;6.970;2023-08-08T02:23:51;5.65;;;3.03;;
60312;SDS011;46158;52.850;6.970;2023-08-08T02:26:16;8.43;;;3.20;;
60312;SDS011;46158;52.850;6.970;2023-08-08T02:28:42;6.53;;;2.95;;
60312;SDS011;46158;52.850;6.970;2023-08-08T02:31:08;7.15;;;3.10;;
60312;SDS011;46158;52.850;6.970;2023-08-08T02:33:34;5.93;;;3.08;;
60312;SDS011;46158;52.850;6.970;2023-08-08T02:35:59;6.55;;;2.97;;
60312;SDS011;46158;52.850;6.970;2023-08-08T02:38:25;5.63;;;2.97;;
60312;SDS011;46158;52.850;6.970;2023-08-08T02:40:51;6.20;;;3.10;;
60312;SDS011;46158;52.850;6.970;2023-08-08T02:43:16;7.15;;;3.17;;
60312;SDS011;46158;52.850;6.970;2023-08-08T02:45:42;7.50;;;3.17;;
60312;SDS011;46158;52.850;6.970;2023-08-08T02:48:08;4.75;;;2.85;;
60312;SDS011;46158;52.850;6.970;2023-08-08T02:50:33;6.82;;;3.13;;
60312;SDS011;46158;52.850;6.970;2023-08-08T02:52:59;6.50;;;3.00;;
60312;SDS011;46158;52.850;6.970;2023-08-08T02:55:25;5.93;;;3.08;;
60312;SDS011;46158;52.850;6.970;2023-08-08T02:57:51;6.97;;;3.17;;
60312;SDS011;46158;52.850;6.970;2023-08-08T03:00:16;6.38;;;2.90;;
60312;SDS011;46158;52.850;6.970;2023-08-08T03:02:42;6.15;;;2.90;;
60312;SDS011;46158;52.850;6.970;2023-08-08T03:05:08;6.72;;;3.13;;
60312;SDS011;46158;52.850;6.970;2023-08-08T03:07:34;5.15;;;2.72;;
60312;SDS011;46158;52.850;6.970;2023-08-08T03:09:59;6.70;;;2.72;;
60312;SDS011;46158;52.850;6.970;2023-08-08T03:12:25;7.13;;;2.92;;
60312;SDS011;46158;52.850;6.970;2023-08-08T03:14:52;6.03;;;3.03;;
60312;SDS011;46158;52.850;6.970;2023-08-08T03:17:18;8.18;;;3.13;;
60312;SDS011;46158;52.850;6.970;2023-08-08T03:19:45;6.47;;;2.92;;
60312;SDS011;46158;52.850;6.970;2023-08-08T03:22:10;5.13;;;2.78;;
60312;SDS011;46158;52.850;6.970;2023-08-08T03:24:36;6.03;;;2.88;;
60312;SDS011;46158;52.850;6.970;2023-08-08T03:27:02;7.00;;;2.88;;
60312;SDS011;46158;52.850;6.970;2023-08-08T03:29:28;5.15;;;2.90;;
60312;SDS011;46158;52.850;6.970;2023-08-08T03:31:53;7.18;;;2.92;;
60312;SDS011;46158;52.850;6.970;2023-08-08T03:34:19;6.07;;;2.95;;
60312;SDS011;46158;52.850;6.970;2023-08-08T03:36:45;7.53;;;2.90;;
60312;SDS011;46158;52.850;6.970;2023-08-08T03:39:10;5.68;;;2.58;;
60312;SDS011;46158;52.850;6.970;2023-08-08T03:41:36;6.90;;;2.80;;
60312;SDS011;46158;52.850;6.970;2023-08-08T03:44:02;5.65;;;3.08;;
60312;SDS011;46158;52.850;6.970;2023-08-08T03:46:28;5.60;;;2.80;;
60312;SDS011;46158;52.850;6.970;2023-08-08T03:48:53;5.72;;;2.95;;
60312;SDS011;46158;52.850;6.970;2023-08-08T03:51:19;4.18;;;2.55;;
60312;SDS011;46158;52.850;6.970;2023-08-08T03:53:45;4.82;;;2.60;;
60312;SDS011;46158;52.850;6.970;2023-08-08T03:56:11;6.45;;;2.60;;
60312;SDS011;46158;52.850;6.970;2023-08-08T03:58:37;6.05;;;2.63;;
60312;SDS011;46158;52.850;6.970;2023-08-08T04:01:03;5.75;;;2.67;;
60312;SDS011;46158;52.850;6.970;2023-08-08T04:03:29;6.07;;;2.80;;
60312;SDS011;46158;52.850;6.970;2023-08-08T04:05:55;5.15;;;2.80;;
60312;SDS011;46158;52.850;6.970;2023-08-08T04:08:20;4.20;;;2.63;;
60312;SDS011;46158;52.850;6.970;2023-08-08T04:10:46;6.03;;;2.60;;
60312;SDS011;46158;52.850;6.970;2023-08-08T04:13:12;6.40;;;2.72;;
60312;SDS011;46158;52.850;6.970;2023-08-08T04:15:38;6.05;;;2.50;;
60312;SDS011;46158;52.850;6.970;2023-08-08T04:18:04;5.35;;;2.70;;
60312;SDS011;46158;52.850;6.970;2023-08-08T04:20:32;8.75;;;2.90;;
60312;SDS011;46158;52.850;6.970;2023-08-08T04:22:58;5.40;;;2.72;;
60312;SDS011;46158;52.850;6.970;2023-08-08T04:25:24;5.57;;;2.55;;
60312;SDS011;46158;52.850;6.970;2023-08-08T04:27:51;6.30;;;2.83;;
60312;SDS011;46158;52.850;6.970;2023-08-08T04:30:16;7.47;;;2.60;;
60312;SDS011;46158;52.850;6.970;2023-08-08T04:32:42;3.65;;;2.45;;
60312;SDS011;46158;52.850;6.970;2023-08-08T04:35:08;3.85;;;2.50;;
60312;SDS011;46158;52.850;6.970;2023-08-08T04:37:33;4.63;;;2.60;;
60312;SDS011;46158;52.850;6.970;2023-08-08T04:39:59;7.35;;;2.78;;
60312;SDS011;46158;52.850;6.970;2023-08-08T04:42:25;5.93;;;2.65;;
60312;SDS011;46158;52.850;6.970;2023-08-08T04:44:50;5.05;;;2.60;;
60312;SDS011;46158;52.850;6.970;2023-08-08T04:47:16;7.43;;;2.67;;
60312;SDS011;46158;52.850;6.970;2023-08-08T04:49:42;5.93;;;2.58;;
60312;SDS011;46158;52.850;6.970;2023-08-08T04:52:07;4.90;;;2.50;;
60312;SDS011;46158;52.850;6.970;2023-08-08T04:54:36;5.07;;;2.70;;
60312;SDS011;46158;52.850;6.970;2023-08-08T04:57:01;5.30;;;2.75;;
60312;SDS011;46158;52.850;6.970;2023-08-08T04:59:27;7.07;;;2.80;;
60312;SDS011;46158;52.850;6.970;2023-08-08T05:01:53;4.82;;;2.47;;
60312;SDS011;46158;52.850;6.970;2023-08-08T05:04:18;5.13;;;2.50;;
60312;SDS011;46158;52.850;6.970;2023-08-08T05:06:44;4.57;;;2.35;;
60312;SDS011;46158;52.850;6.970;2023-08-08T05:09:11;3.88;;;2.47;;
60312;SDS011;46158;52.850;6.970;2023-08-08T05:11:37;4.57;;;2.63;;
60312;SDS011;46158;52.850;6.970;2023-08-08T05:14:02;4.43;;;2.55;;
60312;SDS011;46158;52.850;6.970;2023-08-08T05:16:28;4.25;;;2.40;;
60312;SDS011;46158;52.850;6.970;2023-08-08T05:18:54;4.70;;;2.42;;
60312;SDS011;46158;52.850;6.970;2023-08-08T05:21:19;5.68;;;2.55;;
60312;SDS011;46158;52.850;6.970;2023-08-08T05:23:46;3.65;;;2.40;;
60312;SDS011;46158;52.850;6.970;2023-08-08T05:26:13;5.00;;;2.47;;
60312;SDS011;46158;52.850;6.970;2023-08-08T05:28:39;4.57;;;2.40;;
60312;SDS011;46158;52.850;6.970;2023-08-08T05:31:05;3.70;;;2.30;;
60312;SDS011;46158;52.850;6.970;2023-08-08T05:33:31;5.10;;;2.47;;
60312;SDS011;46158;52.850;6.970;2023-08-08T05:35:58;6.75;;;2.50;;
60312;SDS011;46158;52.850;6.970;2023-08-08T05:38:23;3.92;;;2.20;;
60312;SDS011;46158;52.850;6.970;2023-08-08T05:40:49;5.53;;;2.55;;
60312;SDS011;46158;52.850;6.970;2023-08-08T05:43:15;3.80;;;2.30;;
60312;SDS011;46158;52.850;6.970;2023-08-08T05:45:43;3.78;;;2.30;;
60312;SDS011;46158;52.850;6.970;2023-08-08T05:48:10;5.05;;;2.42;;
60312;SDS011;46158;52.850;6.970;2023-08-08T05:50:39;4.28;;;2.40;;
60312;SDS011;46158;52.850;6.970;2023-08-08T05:53:05;5.40;;;2.30;;
60312;SDS011;46158;52.850;6.970;2023-08-08T05:55:31;5.10;;;2.47;;
60312;SDS011;46158;52.850;6.970;2023-08-08T05:57:57;6.03;;;2.72;;
60312;SDS011;46158;52.850;6.970;2023-08-08T06:00:23;7.88;;;2.80;;
60312;SDS011;46158;52.850;6.970;2023-08-08T06:02:49;5.95;;;2.42;;
60312;SDS011;46158;52.850;6.970;2023-08-08T06:05:17;9.77;;;2.78;;
60312;SDS011;46158;52.850;6.970;2023-08-08T06:07:43;9.50;;;2.67;;
60312;SDS011;46158;52.850;6.970;2023-08-08T06:10:09;7.45;;;2.53;;
60312;SDS011;46158;52.850;6.970;2023-08-08T06:12:35;8.57;;;2.50;;
60312;SDS011;46158;52.850;6.970;2023-08-08T06:15:01;6.85;;;2.30;;
60312;SDS011;46158;52.850;6.970;2023-08-08T06:17:29;6.55;;;2.40;;
60312;SDS011;46158;52.850;6.970;2023-08-08T06:19:55;11.57;;;2.83;;
60312;SDS011;46158;52.850;6.970;2023-08-08T06:22:22;11.07;;;2.90;;
60312;SDS011;46158;52.850;6.970;2023-08-08T06:24:48;11.38;;;2.85;;
60312;SDS011;46158;52.850;6.970;2023-08-08T06:27:14;10.75;;;2.85;;
60312;SDS011;46158;52.850;6.970;2023-08-08T06:29:40;13.68;;;2.95;;
60312;SDS011;46158;52.850;6.970;2023-08-08T06:32:06;12.05;;;3.10;;
60312;SDS011;46158;52.850;6.970;2023-08-08T06:34:32;10.90;;;3.15;;
60312;SDS011;46158;52.850;6.970;2023-08-08T06:36:58;16.25;;;3.70;;
60312;SDS011;46158;52.850;6.970;2023-08-08T06:39:24;15.10;;;4.05;;
60312;SDS011;46158;52.850;6.970;2023-08-08T06:41:50;15.43;;;3.15;;
60312;SDS011;46158;52.850;6.970;2023-08-08T06:44:15;14.85;;;3.70;;
60312;SDS011;46158;52.850;6.970;2023-08-08T06:46:41;15.23;;;3.50;;
60312;SDS011;46158;52.850;6.970;2023-08-08T06:49:07;17.02;;;4.00;;
60312;SDS011;46158;52.850;6.970;2023-08-08T06:51:34;16.52;;;3.72;;
60312;SDS011;46158;52.850;6.970;2023-08-08T06:54:00;16.35;;;3.42;;
60312;SDS011;46158;52.850;6.970;2023-08-08T06:56:26;18.42;;;4.30;;
60312;SDS011;46158;52.850;6.970;2023-08-08T06:58:52;12.95;;;3.42;;
60312;SDS011;46158;52.850;6.970;2023-08-08T07:01:18;15.30;;;3.95;;
60312;SDS011;46158;52.850;6.970;2023-08-08T07:03:44;16.67;;;4.20;;
60312;SDS011;46158;52.850;6.970;2023-08-08T07:06:10;16.95;;;3.90;;
60312;SDS011;46158;52.850;6.970;2023-08-08T07:08:36;14.50;;;3.70;;
60312;SDS011;46158;52.850;6.970;2023-08-08T07:11:04;15.52;;;3.92;;
60312;SDS011;46158;52.850;6.970;2023-08-08T07:13:31;17.02;;;3.78;;
60312;SDS011;46158;52.850;6.970;2023-08-08T07:15:57;15.80;;;3.95;;
60312;SDS011;46158;52.850;6.970;2023-08-08T07:18:23;15.48;;;3.63;;
60312;SDS011;46158;52.850;6.970;2023-08-08T07:20:49;15.30;;;3.70;;
60312;SDS011;46158;52.850;6.970;2023-08-08T07:23:15;15.85;;;4.30;;
60312;SDS011;46158;52.850;6.970;2023-08-08T07:25:41;12.90;;;3.33;;
60312;SDS011;46158;52.850;6.970;2023-08-08T07:28:07;16.58;;;4.28;;
60312;SDS011;46158;52.850;6.970;2023-08-08T07:30:34;15.10;;;3.67;;
60312;SDS011;46158;52.850;6.970;2023-08-08T07:33:00;16.45;;;3.78;;
60312;SDS011;46158;52.850;6.970;2023-08-08T07:35:26;15.25;;;3.70;;
60312;SDS011;46158;52.850;6.970;2023-08-08T07:37:52;14.95;;;3.63;;
60312;SDS011;46158;52.850;6.970;2023-08-08T07:40:19;15.60;;;3.65;;
60312;SDS011;46158;52.850;6.970;2023-08-08T07:42:46;17.58;;;3.80;;
60312;SDS011;46158;52.850;6.970;2023-08-08T07:45:13;12.88;;;3.20;;
60312;SDS011;46158;52.850;6.970;2023-08-08T07:47:40;14.82;;;3.35;;
60312;SDS011;46158;52.850;6.970;2023-08-08T07:50:06;14.55;;;3.50;;
60312;SDS011;46158;52.850;6.970;2023-08-08T07:52:35;15.82;;;3.42;;
60312;SDS011;46158;52.850;6.970;2023-08-08T07:55:02;15.18;;;3.42;;
60312;SDS011;46158;52.850;6.970;2023-08-08T07:57:28;15.57;;;3.03;;
60312;SDS011;46158;52.850;6.970;2023-08-08T07:59:55;15.18;;;3.40;;
60312;SDS011;46158;52.850;6.970;2023-08-08T08:02:21;13.00;;;2.92;;
60312;SDS011;46158;52.850;6.970;2023-08-08T08:04:47;13.73;;;3.30;;
60312;SDS011;46158;52.850;6.970;2023-08-08T08:07:13;10.63;;;3.05;;
60312;SDS011;46158;52.850;6.970;2023-08-08T08:09:38;11.02;;;3.20;;
60312;SDS011;46158;52.850;6.970;2023-08-08T08:12:07;14.10;;;3.13;;
60312;SDS011;46158;52.850;6.970;2023-08-08T08:14:33;10.27;;;3.10;;
60312;SDS011;46158;52.850;6.970;2023-08-08T08:16:59;10.70;;;3.08;;
60312;SDS011;46158;52.850;6.970;2023-08-08T08:19:27;11.25;;;3.00;;
60312;SDS011;46158;52.850;6.970;2023-08-08T08:21:53;12.80;;;2.83;;
60312;SDS011;46158;52.850;6.970;2023-08-08T08:24:19;10.40;;;2.90;;
60312;SDS011;46158;52.850;6.970;2023-08-08T08:26:45;11.75;;;2.75;;
60312;SDS011;46158;52.850;6.970;2023-08-08T08:29:11;12.65;;;3.00;;
60312;SDS011;46158;52.850;6.970;2023-08-08T08:31:37;9.60;;;2.75;;
60312;SDS011;46158;52.850;6.970;2023-08-08T08:34:03;9.18;;;2.58;;
60312;SDS011;46158;52.850;6.970;2023-08-08T08:36:29;8.15;;;2.70;;
60312;SDS011;46158;52.850;6.970;2023-08-08T08:38:55;10.20;;;2.70;;
60312;SDS011;46158;52.850;6.970;2023-08-08T08:41:22;10.68;;;3.00;;
60312;SDS011;46158;52.850;6.970;2023-08-08T08:43:52;9.57;;;2.80;;
60312;SDS011;46158;52.850;6.970;2023-08-08T08:46:20;10.60;;;2.88;;
60312;SDS011;46158;52.850;6.970;2023-08-08T08:48:50;11.45;;;2.75;;
60312;SDS011;46158;52.850;6.970;2023-08-08T08:51:20;13.90;;;3.00;;
60312;SDS011;46158;52.850;6.970;2023-08-08T08:53:46;12.45;;;3.13;;
60312;SDS011;46158;52.850;6.970;2023-08-08T08:56:15;9.73;;;2.65;;
60312;SDS011;46158;52.850;6.970;2023-08-08T08:58:41;10.07;;;2.50;;
60312;SDS011;46158;52.850;6.970;2023-08-08T09:01:09;7.57;;;2.70;;
60312;SDS011;46158;52.850;6.970;2023-08-08T09:03:35;9.38;;;2.65;;
60312;SDS011;46158;52.850;6.970;2023-08-08T09:06:02;11.75;;;2.58;;
60312;SDS011;46158;52.850;6.970;2023-08-08T09:08:29;8.80;;;2.42;;
60312;SDS011;46158;52.850;6.970;2023-08-08T09:10:55;7.72;;;2.58;;
60312;SDS011;46158;52.850;6.970;2023-08-08T09:13:22;7.05;;;2.40;;
60312;SDS011;46158;52.850;6.970;2023-08-08T09:15:50;10.43;;;2.60;;
60312;SDS011;46158;52.850;6.970;2023-08-08T09:18:17;9.13;;;2.78;;
60312;SDS011;46158;52.850;6.970;2023-08-08T09:20:49;8.25;;;2.47;;
60312;SDS011;46158;52.850;6.970;2023-08-08T09:23:15;9.45;;;2.50;;
60312;SDS011;46158;52.850;6.970;2023-08-08T09:25:41;6.53;;;2.42;;
60312;SDS011;46158;52.850;6.970;2023-08-08T09:28:07;5.55;;;2.35;;
60312;SDS011;46158;52.850;6.970;2023-08-08T09:30:33;8.00;;;2.47;;
60312;SDS011;46158;52.850;6.970;2023-08-08T09:33:01;9.05;;;2.40;;
60312;SDS011;46158;52.850;6.970;2023-08-08T09:35:30;4.47;;;2.13;;
60312;SDS011;46158;52.850;6.970;2023-08-08T09:37:56;7.85;;;2.33;;
60312;SDS011;46158;52.850;6.970;2023-08-08T09:40:22;6.32;;;2.38;;
60312;SDS011;46158;52.850;6.970;2023-08-08T09:42:50;7.13;;;2.50;;
60312;SDS011;46158;52.850;6.970;2023-08-08T09:45:21;5.82;;;2.22;;
60312;SDS011;46158;52.850;6.970;2023-08-08T09:47:49;7.22;;;2.33;;
60312;SDS011;46158;52.850;6.970;2023-08-08T09:50:17;9.55;;;2.50;;
60312;SDS011;46158;52.850;6.970;2023-08-08T09:52:43;5.35;;;2.25;;
60312;SDS011;46158;52.850;6.970;2023-08-08T09:55:11;10.38;;;2.33;;
60312;SDS011;46158;52.850;6.970;2023-08-08T09:57:40;7.72;;;1.90;;
60312;SDS011;46158;52.850;6.970;2023-08-08T10:00:07;7.97;;;2.40;;
60312;SDS011;46158;52.850;6.970;2023-08-08T10:02:42;6.22;;;2.30;;
60312;SDS011;46158;52.850;6.970;2023-08-08T10:05:09;7.68;;;2.30;;
60312;SDS011;46158;52.850;6.970;2023-08-08T10:07:38;7.20;;;2.28;;
60312;SDS011;46158;52.850;6.970;2023-08-08T10:10:05;5.03;;;2.03;;
60312;SDS011;46158;52.850;6.970;2023-08-08T10:12:34;6.03;;;2.10;;
60312;SDS011;46158;52.850;6.970;2023-08-08T10:15:06;6.32;;;2.03;;
60312;SDS011;46158;52.850;6.970;2023-08-08T10:17:38;10.93;;;2.37;;
60312;SDS011;46158;52.850;6.970;2023-08-08T10:20:05;6.70;;;2.22;;
60312;SDS011;46158;52.850;6.970;2023-08-08T10:22:46;6.13;;;2.20;;
60312;SDS011;46158;52.850;6.970;2023-08-08T10:25:19;6.97;;;2.45;;
60312;SDS011;46158;52.850;6.970;2023-08-08T10:27:46;5.53;;;2.05;;
60312;SDS011;46158;52.850;6.970;2023-08-08T10:30:13;8.85;;;2.20;;
60312;SDS011;46158;52.850;6.970;2023-08-08T10:32:39;7.88;;;2.10;;
60312;SDS011;46158;52.850;6.970;2023-08-08T10:35:07;5.63;;;1.92;;
60312;SDS011;46158;52.850;6.970;2023-08-08T10:37:34;5.47;;;1.98;;
60312;SDS011;46158;52.850;6.970;2023-08-08T10:40:01;5.47;;;1.90;;
60312;SDS011;46158;52.850;6.970;2023-08-08T10:42:31;6.47;;;1.88;;
60312;SDS011;46158;52.850;6.970;2023-08-08T10:44:59;5.03;;;1.98;;
60312;SDS011;46158;52.850;6.970;2023-08-08T10:47:30;7.43;;;2.25;;
60312;SDS011;46158;52.850;6.970;2023-08-08T10:49:57;8.10;;;2.00;;
60312;SDS011;46158;52.850;6.970;2023-08-08T10:52:31;7.07;;;1.92;;
60312;SDS011;46158;52.850;6.970;2023-08-08T10:55:00;4.28;;;1.80;;
60312;SDS011;46158;52.850;6.970;2023-08-08T10:57:27;7.45;;;1.90;;
60312;SDS011;46158;52.850;6.970;2023-08-08T10:59:53;8.98;;;2.13;;
60312;SDS011;46158;52.850;6.970;2023-08-08T11:02:20;6.95;;;2.00;;
60312;SDS011;46158;52.850;6.970;2023-08-08T11:04:48;6.05;;;2.17;;
60312;SDS011;46158;52.850;6.970;2023-08-08T11:07:15;3.45;;;1.95;;
60312;SDS011;46158;52.850;6.970;2023-08-08T11:09:42;4.10;;;1.90;;
60312;SDS011;46158;52.850;6.970;2023-08-08T11:12:14;5.80;;;1.88;;
60312;SDS011;46158;52.850;6.970;2023-08-08T11:14:41;8.60;;;2.10;;
60312;SDS011;46158;52.850;6.970;2023-08-08T11:17:06;7.22;;;2.10;;
60312;SDS011;46158;52.850;6.970;2023-08-08T11:19:38;8.30;;;2.20;;
60312;SDS011;46158;52.850;6.970;2023-08-08T11:22:09;7.80;;;2.10;;
60312;SDS011;46158;52.850;6.970;2023-08-08T11:24:38;5.95;;;1.92;;
60312;SDS011;46158;52.850;6.970;2023-08-08T11:27:03;8.45;;;2.08;;
60312;SDS011;46158;52.850;6.970;2023-08-08T11:29:29;5.60;;;2.00;;
60312;SDS011;46158;52.850;6.970;2023-08-08T11:31:56;5.82;;;1.73;;
60312;SDS011;46158;52.850;6.970;2023-08-08T11:34:24;9.98;;;2.10;;
60312;SDS011;46158;52.850;6.970;2023-08-08T11:36:51;6.97;;;2.00;;
60312;SDS011;46158;52.850;6.970;2023-08-08T11:39:17;4.13;;;1.98;;
60312;SDS011;46158;52.850;6.970;2023-08-08T11:41:43;3.35;;;2.10;;
60312;SDS011;46158;52.850;6.970;2023-08-08T11:44:09;5.15;;;1.88;;
60312;SDS011;46158;52.850;6.970;2023-08-08T11:46:42;7.43;;;2.05;;
60312;SDS011;46158;52.850;6.970;2023-08-08T11:49:14;7.72;;;2.20;;
60312;SDS011;46158;52.850;6.970;2023-08-08T11:51:44;4.93;;;1.95;;
60312;SDS011;46158;52.850;6.970;2023-08-08T11:54:11;5.37;;;1.83;;
60312;SDS011;46158;52.850;6.970;2023-08-08T11:56:36;6.18;;;1.90;;
60312;SDS011;46158;52.850;6.970;2023-08-08T11:59:04;8.60;;;1.83;;
60312;SDS011;46158;52.850;6.970;2023-08-08T12:01:31;4.32;;;1.92;;
60312;SDS011;46158;52.850;6.970;2023-08-08T12:03:57;9.20;;;1.67;;
60312;SDS011;46158;52.850;6.970;2023-08-08T12:06:29;5.90;;;2.00;;
60312;SDS011;46158;52.850;6.970;2023-08-08T12:08:56;4.80;;;1.90;;
60312;SDS011;46158;52.850;6.970;2023-08-08T12:11:21;5.07;;;1.98;;
60312;SDS011;46158;52.850;6.970;2023-08-08T12:13:47;6.85;;;2.00;;
60312;SDS011;46158;52.850;6.970;2023-08-08T12:16:13;12.00;;;2.55;;
60312;SDS011;46158;52.850;6.970;2023-08-08T12:18:39;7.07;;;1.90;;
60312;SDS011;46158;52.850;6.970;2023-08-08T12:21:06;6.88;;;1.90;;
60312;SDS011;46158;52.850;6.970;2023-08-08T12:23:34;8.15;;;1.80;;
60312;SDS011;46158;52.850;6.970;2023-08-08T12:26:02;10.07;;;2.47;;
60312;SDS011;46158;52.850;6.970;2023-08-08T12:28:30;4.90;;;1.92;;
60312;SDS011;46158;52.850;6.970;2023-08-08T12:30:56;9.00;;;2.20;;
60312;SDS011;46158;52.850;6.970;2023-08-08T12:33:22;8.77;;;2.05;;
60312;SDS011;46158;52.850;6.970;2023-08-08T12:35:48;6.07;;;2.00;;
60312;SDS011;46158;52.850;6.970;2023-08-08T12:38:14;4.80;;;1.95;;
60312;SDS011;46158;52.850;6.970;2023-08-08T12:40:40;9.85;;;2.10;;
60312;SDS011;46158;52.850;6.970;2023-08-08T12:43:06;9.35;;;2.15;;
60312;SDS011;46158;52.850;6.970;2023-08-08T12:45:32;9.18;;;2.28;;
60312;SDS011;46158;52.850;6.970;2023-08-08T12:47:58;9.95;;;2.28;;
60312;SDS011;46158;52.850;6.970;2023-08-08T12:50:24;11.48;;;2.55;;
60312;SDS011;46158;52.850;6.970;2023-08-08T12:52:50;9.50;;;2.22;;
60312;SDS011;46158;52.850;6.970;2023-08-08T12:55:15;10.70;;;2.38;;
60312;SDS011;46158;52.850;6.970;2023-08-08T12:57:43;10.80;;;2.42;;
60312;SDS011;46158;52.850;6.970;2023-08-08T13:00:09;11.57;;;2.42;;
60312;SDS011;46158;52.850;6.970;2023-08-08T13:02:36;10.07;;;2.30;;
60312;SDS011;46158;52.850;6.970;2023-08-08T13:05:03;10.35;;;2.10;;
60312;SDS011;46158;52.850;6.970;2023-08-08T13:07:29;9.77;;;2.72;;
60312;SDS011;46158;52.850;6.970;2023-08-08T13:09:54;9.13;;;2.13;;
60312;SDS011;46158;52.850;6.970;2023-08-08T13:12:20;10.43;;;2.00;;
60312;SDS011;46158;52.850;6.970;2023-08-08T13:14:46;9.18;;;2.15;;
60312;SDS011;46158;52.850;6.970;2023-08-08T13:17:12;7.50;;;2.10;;
60312;SDS011;46158;52.850;6.970;2023-08-08T13:19:38;10.23;;;2.30;;
60312;SDS011;46158;52.850;6.970;2023-08-08T13:22:04;7.80;;;2.17;;
60312;SDS011;46158;52.850;6.970;2023-08-08T13:24:30;7.53;;;2.17;;
60312;SDS011;46158;52.850;6.970;2023-08-08T13:26:56;10.35;;;2.05;;
60312;SDS011;46158;52.850;6.970;2023-08-08T13:29:22;8.23;;;2.08;;
60312;SDS011;46158;52.850;6.970;2023-08-08T13:31:47;7.82;;;2.15;;
60312;SDS011;46158;52.850;6.970;2023-08-08T13:34:13;4.70;;;1.70;;
60312;SDS011;46158;52.850;6.970;2023-08-08T13:36:39;9.23;;;2.08;;
60312;SDS011;46158;52.850;6.970;2023-08-08T13:39:05;6.00;;;2.00;;
60312;SDS011;46158;52.850;6.970;2023-08-08T13:41:31;7.43;;;2.13;;
60312;SDS011;46158;52.850;6.970;2023-08-08T13:43:56;6.38;;;1.73;;
60312;SDS011;46158;52.850;6.970;2023-08-08T13:46:22;4.05;;;1.83;;
60312;SDS011;46158;52.850;6.970;2023-08-08T13:48:48;5.45;;;1.90;;
60312;SDS011;46158;52.850;6.970;2023-08-08T13:51:13;7.60;;;2.20;;
60312;SDS011;46158;52.850;6.970;2023-08-08T13:53:39;9.38;;;2.28;;
60312;SDS011;46158;52.850;6.970;2023-08-08T13:56:05;9.18;;;2.40;;
60312;SDS011;46158;52.850;6.970;2023-08-08T13:58:31;7.18;;;2.10;;
60312;SDS011;46158;52.850;6.970;2023-08-08T14:00:56;7.75;;;2.00;;
60312;SDS011;46158;52.850;6.970;2023-08-08T14:03:23;5.32;;;1.80;;
60312;SDS011;46158;52.850;6.970;2023-08-08T14:05:50;5.38;;;1.80;;
60312;SDS011;46158;52.850;6.970;2023-08-08T14:08:17;7.00;;;2.22;;
60312;SDS011;46158;52.850;6.970;2023-08-08T14:10:43;8.73;;;1.88;;
60312;SDS011;46158;52.850;6.970;2023-08-08T14:13:09;7.22;;;2.10;;
60312;SDS011;46158;52.850;6.970;2023-08-08T14:15:36;5.15;;;2.08;;
60312;SDS011;46158;52.850;6.970;2023-08-08T14:18:02;10.10;;;2.15;;
60312;SDS011;46158;52.850;6.970;2023-08-08T14:20:28;6.38;;;1.90;;
60312;SDS011;46158;52.850;6.970;2023-08-08T14:22:54;5.72;;;2.00;;
60312;SDS011;46158;52.850;6.970;2023-08-08T14:25:20;5.95;;;1.92;;
60312;SDS011;46158;52.850;6.970;2023-08-08T14:27:46;5.75;;;2.05;;
60312;SDS011;46158;52.850;6.970;2023-08-08T14:30:12;9.00;;;2.03;;
60312;SDS011;46158;52.850;6.970;2023-08-08T14:32:38;7.00;;;1.80;;
60312;SDS011;46158;52.850;6.970;2023-08-08T14:35:04;6.80;;;2.00;;
60312;SDS011;46158;52.850;6.970;2023-08-08T14:37:30;6.35;;;1.80;;
60312;SDS011;46158;52.850;6.970;2023-08-08T14:39:57;6.28;;;1.90;;
60312;SDS011;46158;52.850;6.970;2023-08-08T14:42:23;10.98;;;2.10;;
60312;SDS011;46158;52.850;6.970;2023-08-08T14:44:48;5.78;;;1.80;;